Guthrie, Missouri
Current Conditions -  °F | °C
As of 6:11 PM on Sunday 23 Nov 2014 (Local Time) from KJEF Reporting Station
Haze Haze  
Wind Chill: 53°   Ceiling: 500
Heat Index: 53°   Visibility: 1mi
Dew Point: 53°   Wind: 3mph
Humidity: 100%   Direction: 200°SSW
Pressure: 29.29"   Gusts: NA
Location:  38.718°N, 92.0861°W
Report Text: KJEF 240011Z 20003KT 1SM BR OVC005 12/12 A2929 RMK AO2 T01170117
Loading
Personal Weather Stations






























Interactive Weather Map New forecast layout! Learn more

10-Day Weather Forecast

Advertisements
Track Severe Weather on mobile